Time,TemperatureF,DewpointF,PressureIn,WindDirection,WindDirectionDegrees,WindSpeedMPH,WindSpeedGustMPH,Humidity,HourlyPrecipIn,Conditions,Clouds,dailyrainin,SoftwareType,DateUTC
2013-03-14 00:16:00,40.4,25.0,29.86,WSW,258,3.0,8.0,55,0.00,,,0.00,weatherlink.com 1.10,2013-03-14 04:16:00,
2013-03-14 00:31:00,39.7,25.0,29.85,WNW,293,3.0,9.0,57,0.00,,,0.00,weatherlink.com 1.10,2013-03-14 04:31:00,
2013-03-14 00:46:00,39.5,25.0,29.86,WSW,256,2.0,7.0,57,0.00,,,0.00,weatherlink.com 1.10,2013-03-14 04:46:00,
2013-03-14 01:02:00,39.1,27.0,29.86,SW,235,1.0,7.0,61,0.00,,,0.00,weatherlink.com 1.10,2013-03-14 05:02:00,
2013-03-14 01:17:00,38.8,27.0,29.86,WNW,298,2.0,9.0,63,0.00,,,0.00,weatherlink.com 1.10,2013-03-14 05:17:00,
2013-03-14 01:32:00,38.5,26.0,29.86,West,278,1.0,9.0,62,0.00,,,0.00,weatherlink.com 1.10,2013-03-14 05:32:00,
2013-03-14 01:47:00,38.2,26.0,29.86,West,263,0.0,9.0,62,0.00,,,0.00,weatherlink.com 1.10,2013-03-14 05:47:00,
2013-03-14 02:02:00,37.9,25.0,29.86,ENE,70,3.0,8.0,60,0.00,,,0.00,weatherlink.com 1.10,2013-03-14 06:02:00,
2013-03-14 02:17:00,37.4,26.0,29.87,NW,304,2.0,9.0,63,0.00,,,0.00,weatherlink.com 1.10,2013-03-14 06:17:00,
2013-03-14 02:32:00,37.0,25.0,29.87,WSW,250,3.0,14.0,62,0.00,,,0.00,weatherlink.com 1.10,2013-03-14 06:32:00,
2013-03-14 02:47:00,36.7,25.0,29.87,SW,231,6.0,9.0,63,0.00,,,0.00,weatherlink.com 1.10,2013-03-14 06:47:00,
2013-03-14 03:02:00,36.4,24.0,29.86,WNW,290,3.0,9.0,62,0.00,,,0.00,weatherlink.com 1.10,2013-03-14 07:02:00,
2013-03-14 03:17:00,36.1,22.0,29.86,NW,316,1.0,8.0,58,0.00,,,0.00,weatherlink.com 1.10,2013-03-14 07:17:00,
2013-03-14 03:32:00,35.8,21.0,29.86,NNW,340,4.0,10.0,55,0.00,,,0.00,weatherlink.com 1.10,2013-03-14 07:32:00,
2013-03-14 03:47:00,35.6,19.0,29.86,WSW,251,7.0,10.0,51,0.00,,,0.00,weatherlink.com 1.10,2013-03-14 07:47:00,
2013-03-14 04:02:00,35.2,16.0,29.86,WNW,283,1.0,16.0,45,0.00,,,0.00,weatherlink.com 1.10,2013-03-14 08:02:00,
2013-03-14 04:17:00,34.8,15.0,29.86,WNW,297,1.0,11.0,44,0.00,,,0.00,weatherlink.com 1.10,2013-03-14 08:17:00,
2013-03-14 04:32:00,34.5,16.0,29.86,SW,231,3.0,10.0,48,0.00,,,0.00,weatherlink.com 1.10,2013-03-14 08:32:00,
2013-03-14 04:47:00,34.3,17.0,29.86,WSW,252,3.0,9.0,49,0.00,,,0.00,weatherlink.com 1.10,2013-03-14 08:47:00,
2013-03-14 05:02:00,34.1,16.0,29.86,NNW,331,5.0,14.0,47,0.00,,,0.00,weatherlink.com 1.10,2013-03-14 09:02:00,
2013-03-14 05:17:00,33.2,15.0,29.88,West,263,3.0,13.0,47,0.00,,,0.00,weatherlink.com 1.10,2013-03-14 09:17:00,
2013-03-14 05:32:00,32.4,14.0,29.88,West,278,4.0,14.0,47,0.00,,,0.00,weatherlink.com 1.10,2013-03-14 09:32:00,
2013-03-14 05:47:00,31.7,14.0,29.89,West,278,1.0,11.0,49,0.00,,,0.00,weatherlink.com 1.10,2013-03-14 09:47:00,
2013-03-14 06:02:00,31.3,14.0,29.89,ESE,113,0.0,11.0,48,0.00,,,0.00,weatherlink.com 1.10,2013-03-14 10:02:00,
2013-03-14 06:17:00,31.0,13.0,29.89,SW,221,4.0,13.0,48,0.00,,,0.00,weatherlink.com 1.10,2013-03-14 10:17:00,
2013-03-14 06:32:00,30.8,14.0,29.89,West,260,3.0,11.0,49,0.00,,,0.00,weatherlink.com 1.10,2013-03-14 10:32:00,
2013-03-14 06:47:00,30.6,13.0,29.89,NW,309,2.0,11.0,49,0.00,,,0.00,weatherlink.com 1.10,2013-03-14 10:47:00,
2013-03-14 07:03:00,30.6,13.0,29.89,WSW,242,6.0,12.0,49,0.00,,,0.00,weatherlink.com 1.10,2013-03-14 11:03:00,
2013-03-14 07:18:00,31.0,14.0,29.89,SW,216,2.0,10.0,49,0.00,,,0.00,weatherlink.com 1.10,2013-03-14 11:18:00,
2013-03-14 07:33:00,31.6,14.0,29.89,NW,326,1.0,11.0,48,0.00,,,0.00,weatherlink.com 1.10,2013-03-14 11:33:00,
2013-03-14 07:48:00,31.8,14.0,29.90,SW,224,9.0,14.0,47,0.00,,,0.00,weatherlink.com 1.10,2013-03-14 11:48:00,
2013-03-14 08:03:00,31.8,13.0,29.90,NW,305,5.0,22.0,46,0.00,,,0.00,weatherlink.com 1.10,2013-03-14 12:03:00,
2013-03-14 08:18:00,31.6,13.0,29.91,NE,43,5.0,17.0,46,0.00,,,0.00,weatherlink.com 1.10,2013-03-14 12:18:00,
2013-03-14 08:33:00,31.3,14.0,29.91,West,259,8.0,11.0,50,0.00,,,0.00,weatherlink.com 1.10,2013-03-14 12:33:00,
2013-03-14 08:48:00,30.9,15.0,29.92,WNW,293,8.0,15.0,51,0.00,,,0.00,weatherlink.com 1.10,2013-03-14 12:48:00,
2013-03-14 09:03:00,30.7,13.0,29.93,NW,322,5.0,17.0,48,0.00,,,0.00,weatherlink.com 1.10,2013-03-14 13:03:00,
2013-03-14 09:18:00,30.5,10.0,29.93,SSE,153,3.0,14.0,42,0.00,,,0.00,weatherlink.com 1.10,2013-03-14 13:18:00,
2013-03-14 09:33:00,31.1,9.0,29.93,NW,320,5.0,18.0,40,0.00,,,0.00,weatherlink.com 1.10,2013-03-14 13:33:00,
2013-03-14 09:48:00,30.8,10.0,29.93,WNW,297,3.0,14.0,41,0.00,,,0.00,weatherlink.com 1.10,2013-03-14 13:48:00,
2013-03-14 10:03:00,31.4,10.0,29.93,NW,311,7.0,17.0,40,0.00,,,0.00,weatherlink.com 1.10,2013-03-14 14:03:00,
2013-03-14 10:18:00,31.7,10.0,29.93,West,271,7.0,20.0,41,0.00,,,0.00,weatherlink.com 1.10,2013-03-14 14:18:00,
2013-03-14 10:33:00,32.1,11.0,29.93,WNW,295,16.0,20.0,41,0.00,,,0.00,weatherlink.com 1.10,2013-03-14 14:33:00,
2013-03-14 10:49:00,32.5,12.0,29.93,NW,323,6.0,19.0,42,0.00,,,0.00,weatherlink.com 1.10,2013-03-14 14:49:00,
2013-03-14 11:18:00,32.7,12.0,29.92,West,277,6.0,20.0,42,0.00,,,0.00,weatherlink.com 1.10,2013-03-14 15:18:00,
2013-03-14 11:33:00,32.6,12.0,29.92,WNW,288,6.0,18.0,43,0.00,,,0.00,weatherlink.com 1.10,2013-03-14 15:33:00,
2013-03-14 11:48:00,33.3,12.0,29.91,WNW,284,7.0,17.0,42,0.00,,,0.00,weatherlink.com 1.10,2013-03-14 15:48:00,
2013-03-14 12:18:00,33.6,14.0,29.91,West,259,5.0,19.0,44,0.00,,,0.00,weatherlink.com 1.10,2013-03-14 16:18:00,
2013-03-14 12:33:00,33.6,14.0,29.90,WSW,256,5.0,12.0,44,0.00,,,0.00,weatherlink.com 1.10,2013-03-14 16:33:00,
2013-03-14 12:48:00,33.9,14.0,29.90,SSW,212,5.0,15.0,44,0.00,,,0.00,weatherlink.com 1.10,2013-03-14 16:48:00,
2013-03-14 13:03:00,34.7,15.0,29.89,West,262,4.0,17.0,44,0.00,,,0.00,weatherlink.com 1.10,2013-03-14 17:03:00,
2013-03-14 13:18:00,35.3,15.0,29.89,SSW,194,8.0,16.0,43,0.00,,,0.00,weatherlink.com 1.10,2013-03-14 17:18:00,
2013-03-14 13:33:00,35.1,14.0,29.88,West,259,8.0,13.0,42,0.00,,,0.00,weatherlink.com 1.10,2013-03-14 17:33:00,
2013-03-14 13:48:00,34.8,15.0,29.88,North,359,3.0,16.0,44,0.00,,,0.00,weatherlink.com 1.10,2013-03-14 17:48:00,
2013-03-14 14:18:00,36.7,15.0,29.86,NE,36,5.0,15.0,41,0.00,,,0.00,weatherlink.com 1.10,2013-03-14 18:18:00,
2013-03-14 14:33:00,38.2,16.0,29.86,WSW,257,3.0,12.0,40,0.00,,,0.00,weatherlink.com 1.10,2013-03-14 18:33:00,
2013-03-14 14:48:00,37.8,15.0,29.86,WNW,290,1.0,15.0,39,0.00,,,0.00,weatherlink.com 1.10,2013-03-14 18:48:00,
2013-03-14 15:03:00,38.2,14.0,29.85,WSW,249,11.0,17.0,37,0.00,,,0.00,weatherlink.com 1.10,2013-03-14 19:03:00,
2013-03-14 15:18:00,38.9,14.0,29.85,WSW,248,14.0,16.0,36,0.00,,,0.00,weatherlink.com 1.10,2013-03-14 19:18:00,
2013-03-14 15:34:00,39.6,14.0,29.85,NE,44,2.0,15.0,35,0.00,,,0.00,weatherlink.com 1.10,2013-03-14 19:34:00,
2013-03-14 15:49:00,39.5,13.0,29.85,West,262,9.0,15.0,34,0.00,,,0.00,weatherlink.com 1.10,2013-03-14 19:49:00,
2013-03-14 16:04:00,40.1,14.0,29.85,WSW,242,3.0,12.0,34,0.00,,,0.00,weatherlink.com 1.10,2013-03-14 20:04:00,
2013-03-14 16:19:00,40.1,14.0,29.84,WSW,248,6.0,17.0,34,0.00,,,0.00,weatherlink.com 1.10,2013-03-14 20:19:00,
2013-03-14 16:34:00,40.7,12.0,29.84,WSW,257,7.0,15.0,31,0.00,,,0.00,weatherlink.com 1.10,2013-03-14 20:34:00,
2013-03-14 16:49:00,41.3,12.0,29.83,West,260,2.0,12.0,30,0.00,,,0.00,weatherlink.com 1.10,2013-03-14 20:49:00,
2013-03-14 17:04:00,41.7,14.0,29.83,NW,304,3.0,12.0,32,0.00,,,0.00,weatherlink.com 1.10,2013-03-14 21:04:00,
2013-03-14 17:34:00,41.9,11.0,29.83,WSW,244,4.0,11.0,28,0.00,,,0.00,weatherlink.com 1.10,2013-03-14 21:34:00,
2013-03-14 17:49:00,41.7,10.0,29.83,NW,314,8.0,14.0,27,0.00,,,0.00,weatherlink.com 1.10,2013-03-14 21:49:00,
2013-03-14 18:04:00,41.1,9.0,29.84,NW,307,6.0,14.0,27,0.00,,,0.00,weatherlink.com 1.10,2013-03-14 22:04:00,
2013-03-14 18:19:00,40.3,8.0,29.84,West,270,3.0,11.0,26,0.00,,,0.00,weatherlink.com 1.10,2013-03-14 22:19:00,
2013-03-14 18:34:00,39.8,7.0,29.85,WNW,297,5.0,10.0,26,0.00,,,0.00,weatherlink.com 1.10,2013-03-14 22:34:00,
2013-03-14 18:49:00,39.2,6.0,29.85,WNW,288,3.0,11.0,25,0.00,,,0.00,weatherlink.com 1.10,2013-03-14 22:49:00,
2013-03-14 19:04:00,38.9,6.0,29.85,SSW,198,4.0,15.0,25,0.00,,,0.00,weatherlink.com 1.10,2013-03-14 23:04:00,
2013-03-14 19:19:00,38.7,6.0,29.86,West,259,5.0,12.0,25,0.00,,,0.00,weatherlink.com 1.10,2013-03-14 23:19:00,
2013-03-14 19:34:00,38.4,6.0,29.86,WSW,242,4.0,8.0,26,0.00,,,0.00,weatherlink.com 1.10,2013-03-14 23:34:00,
2013-03-14 19:49:00,38.2,7.0,29.87,WSW,249,2.0,10.0,27,0.00,,,0.00,weatherlink.com 1.10,2013-03-14 23:49:00,
2013-03-14 20:04:00,37.7,7.0,29.87,NW,315,1.0,7.0,28,0.00,,,0.00,weatherlink.com 1.10,2013-03-15 00:04:00,
2013-03-14 20:19:00,37.3,7.0,29.88,WSW,256,4.0,13.0,28,0.00,,,0.00,weatherlink.com 1.10,2013-03-15 00:19:00,
2013-03-14 20:34:00,37.0,7.0,29.88,NNE,15,3.0,11.0,29,0.00,,,0.00,weatherlink.com 1.10,2013-03-15 00:34:00,
2013-03-14 20:49:00,36.9,7.0,29.89,West,274,7.0,11.0,29,0.00,,,0.00,weatherlink.com 1.10,2013-03-15 00:49:00,
2013-03-14 21:04:00,36.6,7.0,29.89,West,281,3.0,11.0,29,0.00,,,0.00,weatherlink.com 1.10,2013-03-15 01:04:00,
2013-03-14 21:19:00,36.3,7.0,29.90,West,266,3.0,15.0,29,0.00,,,0.00,weatherlink.com 1.10,2013-03-15 01:19:00,
2013-03-14 21:34:00,35.7,8.0,29.90,SW,224,4.0,12.0,31,0.00,,,0.00,weatherlink.com 1.10,2013-03-15 01:34:00,
2013-03-14 21:49:00,35.5,7.0,29.91,SW,225,5.0,11.0,31,0.00,,,0.00,weatherlink.com 1.10,2013-03-15 01:49:00,
2013-03-14 22:04:00,35.2,8.0,29.91,North,4,0.0,15.0,32,0.00,,,0.00,weatherlink.com 1.10,2013-03-15 02:04:00,
2013-03-14 22:19:00,34.3,7.0,29.92,WNW,290,10.0,10.0,32,0.00,,,0.00,weatherlink.com 1.10,2013-03-15 02:19:00,
2013-03-14 22:34:00,34.0,8.0,29.93,West,273,3.0,12.0,33,0.00,,,0.00,weatherlink.com 1.10,2013-03-15 02:34:00,
2013-03-14 22:49:00,33.5,7.0,29.93,NW,323,1.0,-999.0,33,-99.99,,,0.00,weatherlink.com 1.10,2013-03-15 02:49:00,
2013-03-14 23:04:00,33.2,8.0,29.94,NW,305,4.0,9.0,34,0.00,,,0.00,weatherlink.com 1.10,2013-03-15 03:04:00,
2013-03-14 23:19:00,33.1,7.0,29.94,NNE,25,1.0,8.0,34,0.00,,,0.00,weatherlink.com 1.10,2013-03-15 03:19:00,
2013-03-14 23:34:00,32.9,8.0,29.94,WNW,285,0.0,8.0,35,0.00,,,0.00,weatherlink.com 1.10,2013-03-15 03:34:00,
2013-03-14 23:49:00,32.5,8.0,29.94,SW,235,4.0,6.0,36,0.00,,,0.00,weatherlink.com 1.10,2013-03-15 03:49:00,